Time;durP1;ratioP1;P1;durP2;ratioP2;P2;SDS_P1;SDS_P2;PMS_P1;PMS_P2;Temp;Humidity;BMP_temperature;BMP_pressure;BME280_temperature;BME280_humidity;BME280_pressure;Samples;Min_cycle;Max_cycle;Signal;HPM_P1;HPM_P2
2023/05/11 00:02:07;;;;;;;;;;;13.00;64.20;;;8.44;100.00;95408.59;5032256;28;19966;-46
2023/05/11 00:04:33;;;;;;;;;;;13.00;64.20;;;8.42;100.00;95403.53;5032982;28;19909;-47
2023/05/11 00:06:59;;;;;;;;;;;13.00;64.20;;;8.45;100.00;95399.56;5028867;28;20008;-49
2023/05/11 00:09:25;;;;;;;;;;;13.00;64.30;;;8.46;100.00;95402.00;5030548;28;20287;-47
2023/05/11 00:11:52;;;;;;;;;;;13.00;64.20;;;8.46;100.00;95396.69;5031768;28;19909;-45
2023/05/11 00:14:17;;;;;;;;;;;13.00;64.30;;;8.47;100.00;95400.13;5030899;28;20011;-47
2023/05/11 00:16:43;;;;;;;;;;;13.10;64.30;;;8.42;100.00;95400.09;5031290;28;19995;-47
2023/05/11 00:19:09;;;;;;;;;;;13.10;64.30;;;8.46;100.00;95393.19;5031804;28;19913;-51
2023/05/11 00:21:35;;;;;;;;;;;13.10;64.40;;;8.48;100.00;95399.88;5030957;28;19956;-48
2023/05/11 00:24:01;;;;;;;;;;;13.10;64.40;;;8.46;100.00;95393.19;5034730;28;19963;-48
2023/05/11 00:26:26;;;;;;;;;;;13.00;64.40;;;8.47;100.00;95394.81;5037480;28;20019;-49
2023/05/11 00:28:52;;;;;;;;;;;13.00;64.40;;;8.46;100.00;95394.03;5038445;28;19909;-47
2023/05/11 00:31:18;;;;;;;;;;;13.00;64.40;;;8.45;100.00;95389.75;5038070;28;19916;-47
2023/05/11 00:33:44;;;;;;;;;;;13.00;64.40;;;8.42;100.00;95386.81;5036995;28;19913;-46
2023/05/11 00:36:10;;;;;;;;;;;13.00;64.50;;;8.42;100.00;95387.59;5037816;28;20290;-48
2023/05/11 00:38:39;;;;;;;;;;;13.00;64.60;;;8.43;100.00;95383.09;5037297;28;19909;-46
2023/05/11 00:41:06;;;;;;;;;;;13.00;64.60;;;8.42;100.00;95376.19;5037803;28;19913;-47
2023/05/11 00:43:33;;;;;;;;;;;13.10;64.60;;;8.42;100.00;95378.84;5037190;28;19924;-47
2023/05/11 00:46:00;;;;;;;;;;;13.00;64.60;;;8.44;100.00;95382.06;5020436;28;19924;-47
2023/05/11 00:48:26;;;;;;;;;;;13.10;64.70;;;8.46;100.00;95382.59;5020929;28;19913;-47
2023/05/11 00:50:53;;;;;;;;;;;13.10;64.70;;;8.41;100.00;95374.59;5019154;28;20275;-47
2023/05/11 00:53:19;;;;;;;;;;;13.10;65.50;;;8.47;100.00;95379.69;5038119;28;19924;-47
2023/05/11 00:55:45;;;;;;;;;;;13.10;64.70;;;8.49;100.00;95366.97;5019283;28;19917;-46
2023/05/11 00:58:11;;;;;;;;;;;13.10;64.80;;;8.52;100.00;95374.44;5037901;28;20450;-46
2023/05/11 01:00:37;;;;;;;;;;;13.10;64.80;;;8.55;100.00;95375.75;5038065;28;20279;-46
2023/05/11 01:03:04;;;;;;;;;;;13.10;64.80;;;8.57;100.00;95376.31;5036975;28;19908;-46
2023/05/11 01:06:11;;;;;;;;;;;13.10;64.90;;;8.60;100.00;95377.66;5020127;28;19970;-45
2023/05/11 01:09:17;;;;;;;;;;;13.20;65.00;;;8.62;100.00;95380.81;4986879;28;19909;-46
2023/05/11 01:12:07;;;;;;;;;;;13.20;65.00;;;8.62;100.00;95383.47;5038210;28;19920;-46
2023/05/11 01:14:59;;;;;;;;;;;13.20;65.10;;;8.65;100.00;95385.63;5026971;28;19983;-46
2023/05/11 01:18:03;;;;;;;;;;;13.20;65.00;;;8.64;100.00;95394.66;5021059;28;20418;-49
2023/05/11 01:20:29;;;;;;;;;;;13.20;65.00;;;8.64;100.00;95384.81;5036807;28;19958;-46
2023/05/11 01:23:07;;;;;;;;;;;13.20;65.00;;;8.65;100.00;95380.31;5020264;28;19913;-47
2023/05/11 01:26:25;;;;;;;;;;;13.20;65.00;;;8.66;100.00;95384.59;5024038;28;19909;-46
2023/05/11 01:29:11;;;;;;;;;;;13.30;65.00;;;8.66;100.00;95382.72;5025773;28;20023;-47
2023/05/11 01:31:45;;;;;;;;;;;13.30;65.00;;;8.65;100.00;95378.47;5019066;28;20003;-46
2023/05/11 01:34:25;;;;;;;;;;;13.30;65.10;;;8.66;100.00;95379.28;5009358;28;19908;-47
2023/05/11 01:37:12;;;;;;;;;;;13.30;65.00;;;8.66;100.00;95380.06;5021229;28;20450;-46
2023/05/11 01:39:58;;;;;;;;;;;13.30;65.00;;;8.67;100.00;95372.91;5033645;28;19916;-45
2023/05/11 01:42:31;;;;;;;;;;;13.30;65.10;;;8.66;100.00;95374.75;5010374;28;20498;-46
2023/05/11 01:45:00;;;;;;;;;;;13.30;65.10;;;8.69;100.00;95381.41;5009741;28;19978;-46
2023/05/11 01:47:30;;;;;;;;;;;13.30;65.10;;;8.67;100.00;95380.88;5028023;28;19915;-46
2023/05/11 01:50:00;;;;;;;;;;;13.30;65.10;;;8.66;100.00;95374.75;5020852;28;20401;-46
2023/05/11 01:52:29;;;;;;;;;;;13.30;65.90;;;8.65;100.00;95372.34;5034185;28;19916;-46
2023/05/11 01:54:59;;;;;;;;;;;13.30;65.10;;;8.64;100.00;95368.09;5016836;28;20018;-46
2023/05/11 01:57:27;;;;;;;;;;;13.30;65.00;;;8.62;100.00;95373.69;5014873;28;19916;-46
2023/05/11 01:59:56;;;;;;;;;;;13.30;65.00;;;8.62;100.00;95368.38;5034493;28;20278;-46
2023/05/11 02:02:25;;;;;;;;;;;13.30;65.10;;;8.60;100.00;95369.69;5013535;28;19909;-46
2023/05/11 02:04:53;;;;;;;;;;;13.30;65.10;;;8.60;100.00;95369.69;5034261;28;19908;-46
2023/05/11 02:07:22;;;;;;;;;;;13.30;65.10;;;8.58;100.00;95370.72;5016011;28;19908;-51
2023/05/11 02:09:50;;;;;;;;;;;13.30;65.10;;;8.57;100.00;95371.00;5041262;28;19908;-46
2023/05/11 02:12:19;;;;;;;;;;;13.20;65.10;;;8.53;100.00;95370.69;5037824;28;19938;-47
2023/05/11 02:14:47;;;;;;;;;;;13.20;65.10;;;8.51;100.00;95367.50;5030242;28;20359;-46
2023/05/11 02:17:16;;;;;;;;;;;13.20;65.10;;;8.49;100.00;95369.63;5015894;28;19916;-47
2023/05/11 02:19:45;;;;;;;;;;;13.20;65.90;;;8.49;100.00;95374.94;5032986;28;20367;-46
2023/05/11 02:22:12;;;;;;;;;;;13.20;65.10;;;8.49;100.00;95366.16;5016507;28;20481;-46
2023/05/11 02:24:40;;;;;;;;;;;13.20;65.10;;;8.46;100.00;95364.81;5016372;28;20363;-48
2023/05/11 02:27:06;;;;;;;;;;;13.10;65.10;;;8.46;100.00;95364.00;5014789;28;20302;-47
2023/05/11 02:29:32;;;;;;;;;;;13.10;65.20;;;8.43;100.00;95368.00;5033833;28;19923;-46
2023/05/11 02:32:18;;;;;;;;;;;13.10;65.20;;;8.40;100.00;95365.84;5032330;28;19916;-46
2023/05/11 02:34:57;;;;;;;;;;;13.10;65.20;;;8.40;100.00;95365.84;5003541;28;19909;-50
2023/05/11 02:37:25;;;;;;;;;;;13.10;65.30;;;8.38;100.00;95364.47;5019673;28;19917;-54
2023/05/11 02:40:01;;;;;;;;;;;13.10;65.30;;;8.37;100.00;95365.50;5027766;28;20295;-55
2023/05/11 02:42:35;;;;;;;;;;;13.10;65.40;;;8.35;100.00;95363.13;5016166;28;19912;-57
2023/05/11 02:45:06;;;;;;;;;;;13.00;65.30;;;8.34;100.00;95361.53;5015069;28;19943;-56
2023/05/11 02:47:39;;;;;;;;;;;13.00;65.30;;;8.35;100.00;95357.81;5015146;28;19916;-56
2023/05/11 02:50:08;;;;;;;;;;;13.00;65.40;;;8.31;100.00;95354.88;5014773;28;19908;-56
2023/05/11 02:52:44;;;;;;;;;;;12.90;65.40;;;8.32;100.00;95351.16;5015927;28;19908;-53
2023/05/11 02:55:13;;;;;;;;;;;12.90;65.50;;;8.31;100.00;95348.78;5003877;28;19912;-57
2023/05/11 02:57:40;;;;;;;;;;;12.90;65.50;;;8.35;100.00;95355.16;5031671;28;19917;-55
2023/05/11 03:00:07;;;;;;;;;;;12.90;65.60;;;8.35;100.00;95349.84;5015921;28;19915;-55
2023/05/11 03:02:33;;;;;;;;;;;12.90;65.80;;;8.35;100.00;95350.66;5004035;28;19909;-57
2023/05/11 03:04:58;;;;;;;;;;;12.90;65.80;;;8.36;100.00;95351.44;5033183;28;19916;-53
2023/05/11 03:07:25;;;;;;;;;;;13.00;65.80;;;8.35;100.00;95353.31;5032687;28;19919;-51
2023/05/11 03:09:51;;;;;;;;;;;12.90;65.80;;;8.36;100.00;95356.75;5032758;28;19913;-54
2023/05/11 03:12:20;;;;;;;;;;;12.90;65.80;;;8.36;100.00;95348.78;5015174;28;19909;-52
2023/05/11 03:14:48;;;;;;;;;;;13.00;65.80;;;8.37;100.00;95352.22;5032035;28;19909;-52
2023/05/11 03:17:15;;;;;;;;;;;13.00;65.90;;;8.37;100.00;95350.41;5015000;28;19981;-51
2023/05/11 03:19:42;;;;;;;;;;;13.00;65.90;;;8.37;100.00;95345.09;5032290;28;20513;-53
2023/05/11 03:22:10;;;;;;;;;;;13.00;65.90;;;8.36;100.00;95340.81;5014864;28;20003;-50
2023/05/11 03:24:38;;;;;;;;;;;13.00;65.90;;;8.35;100.00;95350.66;5015423;28;19940;-54
2023/05/11 03:27:07;;;;;;;;;;;13.00;65.90;;;8.37;100.00;95347.75;5013781;28;19909;-51
2023/05/11 03:29:37;;;;;;;;;;;13.10;66.00;;;8.35;100.00;95340.03;5005768;28;19941;-53
2023/05/11 03:32:03;;;;;;;;;;;13.00;65.90;;;8.36;100.00;95346.13;5011503;28;19994;-56
2023/05/11 03:34:29;;;;;;;;;;;13.00;66.00;;;8.36;100.00;95343.47;5032504;28;20354;-53
2023/05/11 03:36:59;;;;;;;;;;;13.00;65.90;;;8.33;100.00;95342.13;5032141;28;19955;-53
2023/05/11 03:39:29;;;;;;;;;;;13.00;66.00;;;8.40;100.00;95349.94;5031516;28;20425;-53
2023/05/11 03:41:57;;;;;;;;;;;13.00;66.00;;;8.41;100.00;95340.09;5014861;28;20302;-50
2023/05/11 03:44:24;;;;;;;;;;;13.00;66.10;;;8.42;100.00;95339.84;5031747;28;20448;-53
2023/05/11 03:46:53;;;;;;;;;;;13.10;66.10;;;8.45;100.00;95343.84;5001692;28;19909;-51
2023/05/11 03:49:19;;;;;;;;;;;13.10;66.10;;;8.43;100.00;95338.78;5003220;28;19936;-52
2023/05/11 03:51:47;;;;;;;;;;;13.00;66.10;;;8.46;100.00;95340.94;4999917;28;19912;-52
2023/05/11 03:54:13;;;;;;;;;;;13.10;66.10;;;8.48;100.00;95335.34;5032064;28;19909;-51
2023/05/11 03:56:39;;;;;;;;;;;13.10;66.20;;;8.49;100.00;95332.47;5006790;28;20360;-54
2023/05/11 03:59:06;;;;;;;;;;;13.10;66.20;;;8.49;100.00;95331.63;5024147;28;19962;-52
2023/05/11 04:01:32;;;;;;;;;;;13.10;66.20;;;8.47;100.00;95339.88;5013234;28;20283;-52
2023/05/11 04:03:58;;;;;;;;;;;13.10;66.10;;;8.47;100.00;95339.06;5009050;28;20413;-51
2023/05/11 04:06:24;;;;;;;;;;;13.10;66.10;;;8.47;100.00;95333.78;5031833;28;19920;-50
2023/05/11 04:08:50;;;;;;;;;;;13.20;66.20;;;8.46;100.00;95338.28;5030508;28;20351;-51
2023/05/11 04:11:15;;;;;;;;;;;13.20;66.20;;;8.51;100.00;95340.16;5045337;28;20294;-52
2023/05/11 04:13:41;;;;;;;;;;;13.20;66.10;;;8.49;100.00;95335.13;5030704;28;19986;-51
2023/05/11 04:16:07;;;;;;;;;;;13.20;66.10;;;8.52;100.00;95341.75;5031599;28;19909;-54
2023/05/11 04:18:33;;;;;;;;;;;13.20;66.20;;;8.51;100.00;95340.16;5031713;28;19912;-53
2023/05/11 04:21:00;;;;;;;;;;;13.20;66.90;;;8.54;100.00;95329.03;5030854;28;19917;-52
2023/05/11 04:23:25;;;;;;;;;;;13.20;66.20;;;8.54;100.00;95334.34;5032172;28;20305;-53
2023/05/11 04:25:55;;;;;;;;;;;13.30;66.20;;;8.59;100.00;95326.41;5029538;28;19999;-52
2023/05/11 04:28:22;;;;;;;;;;;13.30;66.20;;;8.61;100.00;95326.13;4999688;28;20706;-52
2023/05/11 04:30:53;;;;;;;;;;;13.30;66.30;;;8.61;100.00;95323.47;5022107;28;19908;-56
2023/05/11 04:33:20;;;;;;;;;;;13.30;66.20;;;8.66;100.00;95323.50;5015378;28;19908;-54
2023/05/11 04:35:46;;;;;;;;;;;13.40;66.20;;;8.69;100.00;95320.34;5022441;28;19909;-56
2023/05/11 04:38:12;;;;;;;;;;;13.40;66.20;;;8.71;100.00;95323.53;5022436;28;19926;-55
2023/05/11 04:40:39;;;;;;;;;;;13.40;66.20;;;8.74;100.00;95323.00;5018385;28;28064;-55
2023/05/11 04:43:05;;;;;;;;;;;13.40;66.10;;;8.76;100.00;95326.22;5017582;28;19961;-51
2023/05/11 04:45:31;;;;;;;;;;;13.50;66.20;;;8.80;100.00;95330.72;5019794;28;20295;-51
2023/05/11 04:47:56;;;;;;;;;;;13.50;66.10;;;8.83;100.00;95328.63;5018959;28;19970;-56
2023/05/11 04:50:22;;;;;;;;;;;13.50;66.10;;;8.84;100.00;95327.56;5017371;28;19909;-54
2023/05/11 04:52:48;;;;;;;;;;;13.50;66.10;;;8.86;100.00;95326.25;5017465;28;20071;-53
2023/05/11 04:55:13;;;;;;;;;;;13.50;66.10;;;8.90;100.00;95337.16;5014849;28;19913;-50
2023/05/11 04:57:39;;;;;;;;;;;13.60;66.20;;;8.92;100.00;95329.72;5021051;28;19920;-50
2023/05/11 05:00:07;;;;;;;;;;;13.60;66.20;;;8.95;100.00;95334.53;5022926;28;19922;-51
2023/05/11 05:02:33;;;;;;;;;;;13.70;66.20;;;8.95;100.00;95335.31;5015787;28;19908;-48
2023/05/11 05:04:59;;;;;;;;;;;13.70;66.10;;;8.96;100.00;95328.97;5004448;28;19919;-55
2023/05/11 05:07:26;;;;;;;;;;;13.70;66.00;;;9.00;100.00;95331.91;5021296;28;19912;-51
2023/05/11 05:09:52;;;;;;;;;;;13.80;66.00;;;9.04;100.00;95336.41;5022984;28;19932;-54
2023/05/11 05:12:17;;;;;;;;;;;13.80;65.90;;;9.06;100.00;95332.69;5018071;28;19909;-55
2023/05/11 05:14:43;;;;;;;;;;;13.90;65.90;;;9.10;100.00;95331.94;5021784;28;19915;-51
2023/05/11 05:17:09;;;;;;;;;;;13.90;65.90;;;9.12;100.00;95340.44;5022622;28;20011;-54
2023/05/11 05:19:35;;;;;;;;;;;14.00;65.90;;;9.19;100.00;95335.69;5026349;28;19924;-53
2023/05/11 05:22:01;;;;;;;;;;;14.00;65.90;;;9.20;100.00;95337.25;5015274;28;20410;-56
2023/05/11 05:24:26;;;;;;;;;;;14.10;65.80;;;9.24;100.00;95337.53;5037523;28;19936;-50
2023/05/11 05:26:52;;;;;;;;;;;14.10;65.80;;;9.27;100.00;95337.84;5018875;28;20391;-57
2023/05/11 05:29:18;;;;;;;;;;;14.20;65.90;;;9.30;100.00;95339.16;5027095;28;19915;-56
2023/05/11 05:31:43;;;;;;;;;;;14.20;65.90;;;9.35;100.00;95341.84;5024672;28;20343;-50
2023/05/11 05:34:09;;;;;;;;;;;14.20;65.80;;;9.36;100.00;95335.44;5025861;28;19908;-54
2023/05/11 05:36:35;;;;;;;;;;;14.20;65.80;;;9.39;100.00;95339.44;5020514;28;19929;-51
2023/05/11 05:39:02;;;;;;;;;;;14.20;65.70;;;9.42;100.00;95339.72;5021461;23;19975;-51
2023/05/11 05:41:28;;;;;;;;;;;14.20;65.70;;;9.46;100.00;95343.47;5004854;28;19917;-48
2023/05/11 05:43:54;;;;;;;;;;;14.30;66.60;;;9.54;100.00;95336.03;5002147;28;20282;-50
2023/05/11 05:46:20;;;;;;;;;;;14.40;65.80;;;9.59;100.00;95342.16;5005456;28;19916;-48
2023/05/11 05:48:45;;;;;;;;;;;14.40;65.70;;;9.60;100.00;95343.75;5004246;28;19944;-46
2023/05/11 05:51:11;;;;;;;;;;;14.50;65.70;;;9.66;100.00;95341.91;4996844;28;20018;-47
2023/05/11 05:53:37;;;;;;;;;;;14.50;65.60;;;9.69;100.00;95341.38;5002432;28;20579;-47
2023/05/11 05:56:03;;;;;;;;;;;14.50;65.70;;;9.72;100.00;95348.81;5004953;28;19954;-48
2023/05/11 05:58:29;;;;;;;;;;;14.60;65.70;;;9.70;100.00;95335.78;5002661;28;20395;-46
2023/05/11 06:00:55;;;;;;;;;;;14.60;65.60;;;9.75;100.00;95342.19;5005782;28;19909;-46
2023/05/11 06:03:21;;;;;;;;;;;14.60;65.50;;;9.78;100.00;95338.97;5000411;28;20410;-46
2023/05/11 06:05:46;;;;;;;;;;;14.70;65.60;;;9.83;100.00;95339.78;5000912;28;20395;-46
2023/05/11 06:08:12;;;;;;;;;;;14.80;65.50;;;9.85;100.00;95340.31;5001361;28;20039;-45
2023/05/11 06:10:38;;;;;;;;;;;14.80;65.50;;;9.89;100.00;95344.03;4993906;28;19916;-46
2023/05/11 06:13:04;;;;;;;;;;;14.80;65.50;;;9.88;100.00;95341.66;5001634;28;19916;-46
2023/05/11 06:15:29;;;;;;;;;;;14.80;65.40;;;9.89;100.00;95338.72;5003844;28;20371;-47
2023/05/11 06:17:55;;;;;;;;;;;14.80;65.40;;;9.93;100.00;95344.28;5003073;28;19917;-47
2023/05/11 06:20:22;;;;;;;;;;;14.80;65.40;;;9.90;100.00;95335.00;4998550;28;19920;-47
2023/05/11 06:22:47;;;;;;;;;;;14.80;65.50;;;9.91;100.00;95346.44;4997601;28;19909;-48
2023/05/11 06:25:13;;;;;;;;;;;14.80;65.50;;;9.92;100.00;95338.19;5002021;28;19909;-47
2023/05/11 06:27:39;;;;;;;;;;;14.70;65.50;;;9.91;100.00;95339.25;4999879;28;19912;-48
2023/05/11 06:30:06;;;;;;;;;;;14.80;65.50;;;9.94;100.00;95340.59;4984931;28;19909;-48
2023/05/11 06:32:33;;;;;;;;;;;14.80;65.40;;;9.98;100.00;95340.84;5003192;28;19909;-48
2023/05/11 06:34:59;;;;;;;;;;;14.80;66.20;;;10.03;100.00;95335.50;5001506;28;19909;-49
2023/05/11 06:37:28;;;;;;;;;;;14.80;65.50;;;9.99;100.00;95332.59;5004317;28;19944;-47
2023/05/11 06:39:54;;;;;;;;;;;14.80;65.50;;;10.01;100.00;95329.66;5022691;28;19909;-47
2023/05/11 06:42:22;;;;;;;;;;;14.80;65.40;;;10.04;100.00;95329.94;5020342;28;19908;-47
2023/05/11 06:44:48;;;;;;;;;;;14.90;65.40;;;10.14;100.00;95329.91;5025460;28;19908;-47
2023/05/11 06:47:13;;;;;;;;;;;15.10;65.40;;;10.26;100.00;95329.69;5015812;28;20012;-50
2023/05/11 06:49:41;;;;;;;;;;;15.40;65.20;;;10.47;100.00;95324.34;5021379;28;20008;-49
2023/05/11 06:52:08;;;;;;;;;;;15.60;65.00;;;10.59;100.00;95332.81;5022238;28;20385;-46
2023/05/11 06:54:34;;;;;;;;;;;15.90;64.70;;;10.65;100.00;95329.88;5016922;28;19968;-46
2023/05/11 06:57:02;;;;;;;;;;;16.10;64.40;;;10.81;100.00;95321.81;5018970;28;19917;-47
2023/05/11 06:59:29;;;;;;;;;;;16.40;64.20;;;11.02;100.00;95325.22;5018638;28;19908;-49
2023/05/11 07:01:55;;;;;;;;;;;16.60;63.90;;;11.18;100.00;95320.59;5021918;28;19909;-48
2023/05/11 07:04:21;;;;;;;;;;;16.90;63.70;;;11.39;100.00;95318.63;5020879;28;19916;-48
2023/05/11 07:06:46;;;;;;;;;;;17.10;63.50;;;11.41;99.52;95319.16;5022410;28;19935;-48
2023/05/11 07:09:12;;;;;;;;;;;17.20;63.60;;;11.54;99.15;95330.00;5024243;28;19919;-45
2023/05/11 07:11:38;;;;;;;;;;;17.40;63.00;;;11.55;95.36;95328.13;5021101;28;19915;-48
2023/05/11 07:14:04;;;;;;;;;;;17.50;62.70;;;11.66;95.72;95327.00;5018340;28;19916;-46
2023/05/11 07:16:30;;;;;;;;;;;17.60;62.50;;;11.79;95.50;95329.03;5020941;28;19939;-49
2023/05/11 07:18:56;;;;;;;;;;;17.60;62.40;;;11.77;93.59;95328.53;5020658;28;19909;-48
2023/05/11 07:21:22;;;;;;;;;;;17.70;62.20;;;11.89;95.31;95324.75;5020452;28;19915;-47
2023/05/11 07:23:47;;;;;;;;;;;17.70;62.00;;;11.86;94.31;95326.09;5020368;28;20504;-48
2023/05/11 07:26:13;;;;;;;;;;;17.80;61.80;;;11.97;92.97;95324.94;5022868;28;20009;-48
2023/05/11 07:28:39;;;;;;;;;;;17.90;61.50;;;12.05;92.38;95326.22;5018026;28;19917;-48
2023/05/11 07:31:05;;;;;;;;;;;18.00;61.30;;;12.12;92.57;95334.69;5021444;28;20004;-48
2023/05/11 07:33:33;;;;;;;;;;;18.10;61.10;;;12.22;91.76;95334.63;5014298;28;19920;-47
2023/05/11 07:35:59;;;;;;;;;;;18.20;61.10;;;12.17;89.96;95331.19;4996055;28;22947;-48
2023/05/11 07:38:24;;;;;;;;;;;18.20;60.90;;;12.26;90.57;95330.31;5020602;28;19921;-47
2023/05/11 07:40:50;;;;;;;;;;;18.20;60.80;;;12.14;87.05;95335.22;5018059;28;19923;-48
2023/05/11 07:43:16;;;;;;;;;;;18.20;60.60;;;12.18;90.00;95325.56;5019790;28;19935;-46
2023/05/11 07:45:42;;;;;;;;;;;18.20;60.30;;;12.35;91.81;95333.16;5019270;28;19913;-46
2023/05/11 07:48:07;;;;;;;;;;;18.20;60.30;;;12.52;91.47;95334.63;5020748;28;19920;-47
2023/05/11 07:50:33;;;;;;;;;;;18.30;60.30;;;12.68;88.87;95328.03;5020391;28;19962;-51
2023/05/11 07:52:59;;;;;;;;;;;18.40;60.30;;;12.78;87.25;95330.59;5018659;28;19948;-46
2023/05/11 07:55:25;;;;;;;;;;;18.50;60.20;;;12.79;88.79;95326.06;5021772;28;20262;-49
2023/05/11 07:57:53;;;;;;;;;;;18.70;60.10;;;12.84;86.20;95326.78;5019119;28;19925;-52
2023/05/11 08:00:19;;;;;;;;;;;18.80;60.00;;;12.97;88.57;95333.31;5020712;28;20220;-48
2023/05/11 08:02:45;;;;;;;;;;;18.90;59.80;;;13.09;86.87;95325.69;4987611;28;19917;-48
2023/05/11 08:05:11;;;;;;;;;;;19.00;59.60;;;13.02;83.72;95329.78;5021887;28;19913;-48
2023/05/11 08:07:37;;;;;;;;;;;19.10;59.60;;;13.01;84.43;95331.69;5020400;28;20354;-47
2023/05/11 08:10:03;;;;;;;;;;;19.20;59.40;;;13.18;84.73;95321.28;5018263;28;19908;-47
2023/05/11 08:12:29;;;;;;;;;;;19.30;59.30;;;13.38;85.79;95324.81;5019410;28;19917;-46
2023/05/11 08:14:55;;;;;;;;;;;19.40;59.20;;;13.27;82.01;95320.69;5018456;28;19912;-47
2023/05/11 08:17:20;;;;;;;;;;;19.60;58.90;;;13.51;82.92;95326.78;5016768;28;19989;-47
2023/05/11 08:19:46;;;;;;;;;;;19.80;58.80;;;13.73;83.08;95312.03;5017092;28;19913;-48
2023/05/11 08:22:12;;;;;;;;;;;20.10;58.60;;;13.65;78.22;95318.81;5018394;28;20367;-49
2023/05/11 08:24:38;;;;;;;;;;;20.50;58.10;;;13.86;78.12;95316.66;5014456;28;19913;-49
2023/05/11 08:27:05;;;;;;;;;;;20.70;57.50;;;14.05;76.41;95314.72;5000765;28;19930;-48
2023/05/11 08:29:30;;;;;;;;;;;21.10;57.00;;;14.22;73.97;95316.06;5017438;28;19922;-47
2023/05/11 08:31:57;;;;;;;;;;;21.40;56.40;;;14.69;75.55;95314.19;5017898;28;19912;-47
2023/05/11 08:34:23;;;;;;;;;;;21.80;56.20;;;15.15;72.70;95307.94;5014318;28;19909;-47
2023/05/11 08:36:49;;;;;;;;;;;22.30;56.00;;;15.57;70.39;95308.66;5018135;28;20355;-47
2023/05/11 08:39:15;;;;;;;;;;;22.80;55.60;;;15.72;66.51;95302.97;5018656;28;19925;-50
2023/05/11 08:41:43;;;;;;;;;;;23.20;55.10;;;16.11;66.98;95304.22;5017611;28;19917;-47
2023/05/11 08:44:11;;;;;;;;;;;23.70;54.60;;;16.48;66.78;95308.38;4995690;28;19976;-48
2023/05/11 08:46:40;;;;;;;;;;;24.10;54.00;;;16.68;65.65;95309.75;4996831;28;20418;-48
2023/05/11 08:49:07;;;;;;;;;;;24.30;53.70;;;16.85;62.69;95304.47;5001904;28;19916;-47
2023/05/11 08:51:34;;;;;;;;;;;24.50;53.60;;;16.89;63.26;95299.25;5004017;28;19917;-48
2023/05/11 08:53:59;;;;;;;;;;;24.70;52.90;;;16.42;63.20;95296.97;5021555;28;19909;-49
2023/05/11 08:56:28;;;;;;;;;;;24.80;52.50;;;16.65;59.52;95284.28;5002713;28;19916;-48
2023/05/11 08:58:57;;;;;;;;;;;24.90;51.80;;;16.78;60.72;95296.06;5021664;28;19940;-50
2023/05/11 09:01:28;;;;;;;;;;;25.10;51.40;;;16.61;60.85;95285.22;5013346;28;20035;-48
2023/05/11 09:03:55;;;;;;;;;;;25.10;51.40;;;16.80;60.59;95293.84;5020173;28;20351;-48
2023/05/11 09:06:25;;;;;;;;;;;25.00;51.30;;;16.18;61.26;95286.56;5001651;28;19920;-47
2023/05/11 09:08:52;;;;;;;;;;;24.80;50.80;;;16.17;62.72;95287.66;5001969;28;20399;-48
2023/05/11 09:11:18;;;;;;;;;;;24.40;50.40;;;15.95;65.75;95283.09;5019061;28;19909;-48
2023/05/11 09:13:45;;;;;;;;;;;24.00;50.40;;;15.97;63.77;95280.09;5021941;28;19932;-47
2023/05/11 09:16:10;;;;;;;;;;;23.80;50.70;;;16.11;64.78;95286.19;5005812;28;19913;-48
2023/05/11 09:18:50;;;;;;;;;;;23.70;50.80;;;15.98;62.99;95281.66;5019013;28;20600;-48
2023/05/11 09:21:17;;;;;;;;;;;23.70;50.90;;;15.87;63.35;95277.66;5017754;28;19916;-50
2023/05/11 09:23:43;;;;;;;;;;;23.60;50.60;;;16.14;63.84;95277.53;5019837;28;19917;-47
2023/05/11 09:26:28;;;;;;;;;;;23.60;50.50;;;16.30;63.31;95277.94;5022531;28;19917;-48
2023/05/11 09:28:56;;;;;;;;;;;23.60;50.40;;;16.27;61.39;95273.19;5021343;28;20566;-47
2023/05/11 09:31:44;;;;;;;;;;;23.70;50.40;;;16.11;61.10;95269.28;5022738;28;20333;-47
2023/05/11 09:34:11;;;;;;;;;;;23.80;50.00;;;16.31;64.14;95274.13;5021490;28;19909;-49
2023/05/11 09:36:37;;;;;;;;;;;23.90;49.90;;;16.51;63.14;95270.13;5023747;28;20398;-48
2023/05/11 09:39:04;;;;;;;;;;;24.00;49.80;;;16.48;61.23;95265.34;5022057;28;19924;-50
2023/05/11 09:41:30;;;;;;;;;;;24.10;49.70;;;16.59;61.39;95264.00;5018690;28;19948;-49
2023/05/11 09:44:09;;;;;;;;;;;24.10;49.60;;;16.68;61.36;95261.34;5019316;28;19935;-49
2023/05/11 09:46:43;;;;;;;;;;;24.20;49.80;;;16.94;60.67;95271.44;5023038;28;22803;-50
2023/05/11 09:49:10;;;;;;;;;;;24.10;49.70;;;17.05;61.39;95262.75;5005131;28;19982;-48
2023/05/11 09:51:39;;;;;;;;;;;24.10;49.80;;;16.99;59.95;95255.16;5022900;28;21177;-47
2023/05/11 09:54:21;;;;;;;;;;;24.00;49.80;;;17.02;58.68;95257.22;5024443;28;19940;-48
2023/05/11 09:56:51;;;;;;;;;;;24.00;49.70;;;16.76;57.40;95259.81;5017806;28;19917;-49
2023/05/11 09:59:39;;;;;;;;;;;24.00;49.30;;;16.90;58.65;95248.94;5020101;28;20410;-48
2023/05/11 10:02:29;;;;;;;;;;;23.90;49.20;;;16.47;57.48;95252.25;5003400;28;19909;-49
2023/05/11 10:05:00;;;;;;;;;;;23.70;49.00;;;16.27;57.66;95246.31;5018856;28;20375;-47
2023/05/11 10:07:34;;;;;;;;;;;23.20;48.90;;;16.02;60.81;95245.06;5019965;28;20012;-47
2023/05/11 10:10:10;;;;;;;;;;;22.90;49.10;;;15.45;62.97;95255.53;5005058;28;19985;-47
2023/05/11 10:12:39;;;;;;;;;;;22.40;49.10;;;15.12;62.45;95253.00;5020507;28;19925;-47
2023/05/11 10:15:08;;;;;;;;;;;22.00;49.30;;;14.90;62.93;95253.72;5023888;28;19908;-52
2023/05/11 10:17:35;;;;;;;;;;;21.60;49.40;;;14.83;66.94;95255.22;5021570;28;19927;-47
2023/05/11 10:20:04;;;;;;;;;;;21.30;49.70;;;14.77;71.65;95260.69;5021656;28;19916;-50
2023/05/11 10:22:31;;;;;;;;;;;21.00;49.90;;;14.66;70.30;95261.16;5022225;28;19908;-47
2023/05/11 10:24:58;;;;;;;;;;;20.80;50.20;;;14.63;72.93;95259.88;5019860;28;19908;-51
2023/05/11 10:27:25;;;;;;;;;;;20.60;50.50;;;14.31;74.65;95258.03;5020716;28;19913;-52
2023/05/11 10:29:52;;;;;;;;;;;20.50;50.70;;;14.18;78.97;95259.59;5022043;28;19913;-51
2023/05/11 10:32:19;;;;;;;;;;;20.40;50.70;;;14.14;76.40;95255.94;5020974;28;19908;-48
2023/05/11 10:34:49;;;;;;;;;;;20.30;50.80;;;13.66;78.89;95258.84;5021606;28;19947;-48
2023/05/11 10:37:16;;;;;;;;;;;20.20;50.80;;;13.19;79.03;95253.38;5019091;28;19941;-47
2023/05/11 10:39:44;;;;;;;;;;;20.10;50.80;;;12.89;83.41;95257.22;5004493;28;20415;-47
2023/05/11 10:43:07;;;;;;;;;;;19.90;50.90;;;13.09;85.73;95258.81;5011272;28;19909;-46
2023/05/11 10:46:07;;;;;;;;;;;19.90;51.10;;;13.09;84.51;95248.13;5018879;28;19970;-52
2023/05/11 10:48:51;;;;;;;;;;;19.90;51.30;;;12.94;83.11;95242.97;5016419;28;19920;-52
2023/05/11 10:51:54;;;;;;;;;;;19.80;51.40;;;12.54;83.99;95242.41;5021253;28;19913;-49
2023/05/11 10:54:52;;;;;;;;;;;19.80;51.40;;;12.73;79.61;95253.94;5019074;28;19913;-48
2023/05/11 10:58:02;;;;;;;;;;;19.70;51.50;;;12.55;83.39;95240.53;5017748;28;19912;-48
2023/05/11 11:01:12;;;;;;;;;;;19.60;51.70;;;12.58;81.79;95251.44;5023683;28;19915;-47
2023/05/11 11:03:37;;;;;;;;;;;19.40;52.00;;;12.70;81.81;95245.72;5018662;28;19960;-49
2023/05/11 11:06:04;;;;;;;;;;;19.20;52.20;;;12.49;78.41;95253.16;5021819;28;19948;-48
2023/05/11 11:09:00;;;;;;;;;;;19.00;52.30;;;12.64;78.64;95247.63;5023173;28;19916;-46
2023/05/11 11:11:44;;;;;;;;;;;18.90;52.60;;;12.68;80.11;95256.66;5021681;28;19913;-51
2023/05/11 11:14:12;;;;;;;;;;;18.70;52.70;;;12.62;75.50;95255.13;5023365;28;20014;-47
2023/05/11 11:16:39;;;;;;;;;;;18.60;52.90;;;12.59;77.72;95263.72;5021067;28;20792;-51
2023/05/11 11:19:29;;;;;;;;;;;18.50;53.00;;;12.56;76.63;95266.16;5017951;28;19909;-47
2023/05/11 11:21:56;;;;;;;;;;;18.40;53.20;;;12.59;76.11;95258.38;5019376;28;19918;-48
2023/05/11 11:24:37;;;;;;;;;;;18.30;53.30;;;12.43;75.93;95259.63;5018982;28;19909;-49
2023/05/11 11:27:05;;;;;;;;;;;18.20;53.30;;;12.50;78.64;95255.56;5024303;28;20287;-51
2023/05/11 11:29:38;;;;;;;;;;;18.20;53.50;;;12.50;82.07;95258.22;5019632;28;20428;-47